Aeroporto :
LOGIN :

Iscrizione | Disclaimer

   EN    FR    IT 

 










Sommario :    VFR   VFR Marginale   IFR   IFR Intensivo   IFR Molto Intensivo
Visibilità : 
Base nubi : 
>= 8 km
>= 3000ft
5 / 8 km
1000 / 3000 ft
1500m / 5 km
500 / 1000 ft
800 / 1500m
200 / 500 ft
< 800m
< 200 ft
Simboli :   Temporali  Nebbia  Neve Forte  Precipitazioni Forti  Vento > 20 kt
SIGMETs :   Varie  Temporali  Ghiacco  Turbolenza  Onda orograficha  Ceneri Vulcaniche






- Altitudine del aeroporto : 348 ft
- Codice IATA : LDV


LFRJ - Landivisiau

ULTIMO METAR :
  • 032130Z AUTO 29003KT CAVOK 12/10 Q1025

METARs OBSOLETI :
  • 032100Z AUTO 32003KT CAVOK 12/10 Q1025
  • 032030Z AUTO 32003KT CAVOK 13/10 Q1024
  • 032000Z AUTO 34005KT 9999 FEW018 13/10 Q1024
  • 031930Z AUTO 33007KT 310V010 9999 FEW020 14/10 Q1024
  • 031900Z AUTO 34007KT 310V010 9999 FEW025 15/10 Q1024

Previsioni scadute.



MetMap, La meteo Aeronautica in un colpo d'occhio ! - Copyright ORBIFLY Dicembre 2007 - Disclaimer

ORBIFLY MET'MAP TEAM :

Programmazione e sviluppo : Alexandra Zaïnal
Concezione : Baudouin d'Aumeries
Supporto tecnico e logistico : Manuel Goepfert
Aiuto : Marc-Olivier Méhu
Aiuto per la traduzione : Arnaldo La Scala




FONTI E CREDITI :

   NOAA